RJNA(METAR)
12/16 15:40
RJNA 160640Z VRB02KT 9999 FEW030 SCT060 BKN230 09/01 Q1013 RMK
1CU030 3SC060 A2994=
戻る
トップページへ戻る
IMOC Co,.Ltd.